createdAt,value
2018-04-01T00:00:24.148Z,18.81
2018-04-01T00:01:24.147Z,18.81
2018-04-01T00:02:24.162Z,18.81
2018-04-01T00:03:24.147Z,18.82
2018-04-01T00:04:24.150Z,18.79
2018-04-01T00:05:24.139Z,18.8
2018-04-01T00:06:24.135Z,18.82
2018-04-01T00:07:24.152Z,18.81
2018-04-01T00:08:24.143Z,18.82
2018-04-01T00:09:24.165Z,18.81
2018-04-01T00:10:24.116Z,18.8
2018-04-01T00:11:24.127Z,18.8
2018-04-01T00:12:24.168Z,18.8
2018-04-01T00:13:24.151Z,18.79
2018-04-01T00:14:24.156Z,18.78
2018-04-01T00:15:24.596Z,18.79
2018-04-01T00:16:24.133Z,18.78
2018-04-01T00:17:24.147Z,18.76
2018-04-01T00:18:24.143Z,18.78
2018-04-01T00:19:24.172Z,18.77
2018-04-01T00:20:24.152Z,18.76
2018-04-01T00:21:24.119Z,18.78
2018-04-01T00:22:24.145Z,18.77
2018-04-01T00:23:24.135Z,18.72
2018-04-01T00:24:24.179Z,18.77
2018-04-01T00:25:24.164Z,18.76
2018-04-01T00:26:24.150Z,18.71
2018-04-01T00:27:24.125Z,18.72
2018-04-01T00:28:24.135Z,18.74
2018-04-01T00:29:24.143Z,18.71
2018-04-01T00:30:24.148Z,18.73
2018-04-01T00:31:24.122Z,18.72
2018-04-01T00:32:24.141Z,18.7
2018-04-01T00:33:24.137Z,18.72
2018-04-01T00:34:24.114Z,18.71
2018-04-01T00:35:24.142Z,18.7
2018-04-01T00:36:24.111Z,18.72
2018-04-01T00:37:24.145Z,18.71
2018-04-01T00:38:24.169Z,18.69
2018-04-01T00:39:24.140Z,18.71
2018-04-01T00:40:24.174Z,18.72
2018-04-01T00:41:24.135Z,18.68
2018-04-01T00:42:24.116Z,18.69
2018-04-01T00:43:24.132Z,18.68
2018-04-01T00:44:24.111Z,18.69
2018-04-01T00:45:24.129Z,18.72
2018-04-01T00:46:24.210Z,18.68
2018-04-01T00:47:24.137Z,18.67
2018-04-01T00:48:24.119Z,18.69
2018-04-01T00:49:24.118Z,18.69
2018-04-01T00:50:24.116Z,18.66
2018-04-01T00:51:24.171Z,18.69
2018-04-01T00:52:24.138Z,18.68
2018-04-01T00:53:24.134Z,18.65
2018-04-01T00:54:24.109Z,18.67
2018-04-01T00:55:24.155Z,18.66
2018-04-01T00:56:24.105Z,18.65
2018-04-01T00:57:24.111Z,18.66
2018-04-01T00:58:24.128Z,18.68
2018-04-01T00:59:24.128Z,18.66
2018-04-01T01:00:24.138Z,18.66
2018-04-01T01:01:24.110Z,18.65
2018-04-01T01:02:24.122Z,18.66
2018-04-01T01:03:24.116Z,18.66
2018-04-01T01:04:24.121Z,18.62
2018-04-01T01:05:24.129Z,18.65
2018-04-01T01:06:24.115Z,18.66
2018-04-01T01:07:24.126Z,18.63
2018-04-01T01:08:24.110Z,18.62
2018-04-01T01:09:24.151Z,18.64
2018-04-01T01:10:24.382Z,18.62
2018-04-01T01:11:24.162Z,18.63
2018-04-01T01:12:24.111Z,18.64
2018-04-01T01:13:24.121Z,18.62
2018-04-01T01:14:24.098Z,18.62
2018-04-01T01:15:24.159Z,18.61
2018-04-01T01:16:24.115Z,18.61
2018-04-01T01:17:24.162Z,18.58
2018-04-01T01:18:24.094Z,18.63
2018-04-01T01:19:24.135Z,18.62
2018-04-01T01:20:24.515Z,18.62
2018-04-01T01:21:24.129Z,18.62
2018-04-01T01:22:24.104Z,18.61
2018-04-01T01:23:24.114Z,18.58
2018-04-01T01:24:24.112Z,18.61
2018-04-01T01:25:24.139Z,18.59
2018-04-01T01:26:24.125Z,18.58
2018-04-01T01:27:24.117Z,18.61
2018-04-01T01:28:24.107Z,18.58
2018-04-01T01:29:24.103Z,18.57
2018-04-01T01:30:24.160Z,18.58
2018-04-01T01:31:24.102Z,18.61
2018-04-01T01:32:24.111Z,18.57
2018-04-01T01:33:24.125Z,18.58
2018-04-01T01:34:24.094Z,18.57
2018-04-01T01:35:24.135Z,18.58
2018-04-01T01:36:24.084Z,18.57
2018-04-01T01:37:24.126Z,18.57
2018-04-01T01:38:24.126Z,18.57
2018-04-01T01:39:24.082Z,18.56
2018-04-01T01:40:24.121Z,18.56
2018-04-01T01:41:24.096Z,18.56
2018-04-01T01:42:24.098Z,18.57
2018-04-01T01:43:24.119Z,18.55
2018-04-01T01:44:24.101Z,18.54
2018-04-01T01:45:24.113Z,18.55
2018-04-01T01:46:24.083Z,18.53
2018-04-01T01:47:24.095Z,18.54
2018-04-01T01:48:24.207Z,18.54
2018-04-01T01:49:24.093Z,18.55
2018-04-01T01:50:24.115Z,18.55
2018-04-01T01:51:24.122Z,18.56
2018-04-01T01:52:24.115Z,18.54
2018-04-01T01:53:24.213Z,18.54
2018-04-01T01:54:24.184Z,18.53
2018-04-01T01:55:24.098Z,18.53
2018-04-01T01:56:24.114Z,18.52
2018-04-01T01:57:24.133Z,18.53
2018-04-01T01:58:24.119Z,18.52
2018-04-01T01:59:24.099Z,18.49
2018-04-01T02:00:24.128Z,18.53
2018-04-01T02:01:24.109Z,18.52
2018-04-01T02:02:24.099Z,18.47
2018-04-01T02:03:24.110Z,18.51
2018-04-01T02:04:24.118Z,18.5
2018-04-01T02:05:24.111Z,18.49
2018-04-01T02:06:24.077Z,18.51
2018-04-01T02:07:24.082Z,18.52
2018-04-01T02:08:24.118Z,18.5
2018-04-01T02:09:24.112Z,18.51
2018-04-01T02:10:24.126Z,18.5
2018-04-01T02:11:24.110Z,18.48
2018-04-01T02:12:24.168Z,18.49
2018-04-01T02:13:24.094Z,18.5
2018-04-01T02:14:24.090Z,18.48
2018-04-01T02:15:24.140Z,18.49
2018-04-01T02:16:24.096Z,18.49
2018-04-01T02:17:24.098Z,18.49
2018-04-01T02:18:24.114Z,18.51
2018-04-01T02:19:24.184Z,18.49
2018-04-01T02:20:24.122Z,18.48
2018-04-01T02:21:24.107Z,18.48
2018-04-01T02:22:24.109Z,18.46
2018-04-01T02:23:24.102Z,18.43
2018-04-01T02:24:24.109Z,18.48
2018-04-01T02:25:24.113Z,18.46
2018-04-01T02:26:24.137Z,18.46
2018-04-01T02:27:24.104Z,18.44
2018-04-01T02:28:24.182Z,18.44
2018-04-01T02:29:24.077Z,18.44
2018-04-01T02:30:24.113Z,18.46
2018-04-01T02:31:24.546Z,18.44
2018-04-01T02:32:24.130Z,18.42
2018-04-01T02:33:24.106Z,18.44
2018-04-01T02:34:24.117Z,18.44
2018-04-01T02:35:24.098Z,18.43
2018-04-01T02:36:24.159Z,18.44
2018-04-01T02:37:24.114Z,18.43
2018-04-01T02:38:24.144Z,18.43
2018-04-01T02:39:24.122Z,18.42
2018-04-01T02:40:24.138Z,18.44
2018-04-01T02:41:24.124Z,18.42
2018-04-01T02:42:24.119Z,18.43
2018-04-01T02:43:24.127Z,18.42
2018-04-01T02:44:24.098Z,18.39
2018-04-01T02:45:24.076Z,18.43
2018-04-01T02:46:24.118Z,18.41
2018-04-01T02:47:24.148Z,18.39
2018-04-01T02:48:24.095Z,18.42
2018-04-01T02:49:24.095Z,18.42
2018-04-01T02:50:24.158Z,18.41
2018-04-01T02:51:24.113Z,18.41
2018-04-01T02:52:24.105Z,18.4
2018-04-01T02:53:24.097Z,18.39
2018-04-01T02:54:24.085Z,18.39
2018-04-01T02:55:24.104Z,18.41
2018-04-01T02:56:24.101Z,18.39
2018-04-01T02:57:24.130Z,18.41
2018-04-01T02:58:24.134Z,18.37
2018-04-01T02:59:24.068Z,18.37
2018-04-01T03:00:24.064Z,18.41
2018-04-01T03:01:24.099Z,18.38
2018-04-01T03:02:24.112Z,18.37
2018-04-01T03:03:24.090Z,18.37
2018-04-01T03:04:24.089Z,18.37
2018-04-01T03:05:24.110Z,18.37
2018-04-01T03:06:24.080Z,18.41
2018-04-01T03:07:24.084Z,18.34
2018-04-01T03:08:24.082Z,18.35
2018-04-01T03:09:24.078Z,18.37
2018-04-01T03:10:24.110Z,18.34
2018-04-01T03:11:24.079Z,18.36
2018-04-01T03:12:24.077Z,18.38
2018-04-01T03:13:24.080Z,18.37
2018-04-01T03:14:24.090Z,18.33
2018-04-01T03:15:24.100Z,18.36
2018-04-01T03:16:24.112Z,18.37
2018-04-01T03:17:24.089Z,18.33
2018-04-01T03:18:24.085Z,18.35
2018-04-01T03:19:24.092Z,18.32
2018-04-01T03:20:24.084Z,18.32
2018-04-01T03:21:24.148Z,18.35
2018-04-01T03:22:24.077Z,18.33
2018-04-01T03:23:24.114Z,18.33
2018-04-01T03:24:24.087Z,18.33
2018-04-01T03:25:24.076Z,18.32
2018-04-01T03:26:24.113Z,18.32
2018-04-01T03:27:24.101Z,18.33
2018-04-01T03:28:24.114Z,18.33
2018-04-01T03:29:24.070Z,18.29
2018-04-01T03:30:24.097Z,18.32
2018-04-01T03:31:24.106Z,18.32
2018-04-01T03:32:24.080Z,18.28
2018-04-01T03:33:24.076Z,18.33
2018-04-01T03:34:24.078Z,18.3
2018-04-01T03:35:24.085Z,18.27
2018-04-01T03:36:24.084Z,18.3
2018-04-01T03:37:24.088Z,18.3
2018-04-01T03:38:24.091Z,18.28
2018-04-01T03:39:24.059Z,18.3
2018-04-01T03:40:24.070Z,18.29
2018-04-01T03:41:24.105Z,18.27
2018-04-01T03:42:24.087Z,18.29
2018-04-01T03:43:24.085Z,18.29
2018-04-01T03:44:24.084Z,18.26
2018-04-01T03:45:24.059Z,18.27
2018-04-01T03:46:24.089Z,18.29
2018-04-01T03:47:24.062Z,18.27
2018-04-01T03:48:24.060Z,18.29
2018-04-01T03:49:24.073Z,18.28
2018-04-01T03:50:24.134Z,18.27
2018-04-01T03:51:24.070Z,18.32
2018-04-01T03:52:24.158Z,18.3
2018-04-01T03:53:24.098Z,18.27
2018-04-01T03:54:24.176Z,18.32
2018-04-01T03:55:24.182Z,18.3
2018-04-01T03:56:24.051Z,18.27
2018-04-01T03:57:24.061Z,18.29
2018-04-01T03:58:24.114Z,18.32
2018-04-01T03:59:24.061Z,18.28
2018-04-01T04:00:24.303Z,18.32
2018-04-01T04:01:24.091Z,18.34
2018-04-01T04:02:24.064Z,18.3
2018-04-01T04:03:24.071Z,18.33
2018-04-01T04:04:24.102Z,18.36
2018-04-01T04:05:24.075Z,18.34
2018-04-01T04:06:24.059Z,18.37
2018-04-01T04:07:24.067Z,18.37
2018-04-01T04:08:24.115Z,18.36
2018-04-01T04:09:24.040Z,18.37
2018-04-01T04:10:24.044Z,18.39
2018-04-01T04:11:24.138Z,18.39
2018-04-01T04:12:24.071Z,18.42
2018-04-01T04:13:24.061Z,18.46
2018-04-01T04:14:24.050Z,18.42
2018-04-01T04:15:24.072Z,18.44
2018-04-01T04:16:24.068Z,18.47
2018-04-01T04:17:24.263Z,18.49
2018-04-01T04:18:24.073Z,18.5
2018-04-01T04:19:24.074Z,18.54
2018-04-01T04:20:24.068Z,18.52
2018-04-01T04:21:24.091Z,18.58
2018-04-01T04:22:24.099Z,18.58
2018-04-01T04:23:24.203Z,18.59
2018-04-01T04:24:24.064Z,18.63
2018-04-01T04:25:24.057Z,18.65
2018-04-01T04:26:24.066Z,18.63
2018-04-01T04:27:24.070Z,18.67
2018-04-01T04:28:24.071Z,18.69
2018-04-01T04:29:24.053Z,18.7
2018-04-01T04:30:24.030Z,18.72
2018-04-01T04:31:24.089Z,18.72
2018-04-01T04:32:24.070Z,18.73
2018-04-01T04:33:24.063Z,18.77
2018-04-01T04:34:24.042Z,18.79
2018-04-01T04:35:24.073Z,18.77
2018-04-01T04:36:24.036Z,18.8
2018-04-01T04:37:24.068Z,18.81
2018-04-01T04:38:24.057Z,18.84
2018-04-01T04:39:24.026Z,18.83
2018-04-01T04:40:24.078Z,18.88
2018-04-01T04:41:24.046Z,18.86
2018-04-01T04:42:24.060Z,18.91
2018-04-01T04:43:24.057Z,18.92
2018-04-01T04:44:24.100Z,18.89
2018-04-01T04:45:24.051Z,18.92
2018-04-01T04:46:24.042Z,18.94
2018-04-01T04:47:24.037Z,18.95
2018-04-01T04:48:24.049Z,18.94
2018-04-01T04:49:24.093Z,18.98
2018-04-01T04:50:24.038Z,18.98
2018-04-01T04:51:24.045Z,19.01
2018-04-01T04:52:24.080Z,19.01
2018-04-01T04:53:24.055Z,19.02
2018-04-01T04:54:24.124Z,19.03
2018-04-01T04:55:24.058Z,19.06
2018-04-01T04:56:24.160Z,19.05
2018-04-01T04:57:24.043Z,19.08
2018-04-01T04:58:24.051Z,19.07
2018-04-01T04:59:24.050Z,19.1
2018-04-01T05:00:24.049Z,19.11
2018-04-01T05:01:24.040Z,19.11
2018-04-01T05:02:24.043Z,19.13
2018-04-01T05:03:24.020Z,19.15
2018-04-01T05:04:24.027Z,19.16
2018-04-01T05:05:24.046Z,19.17
2018-04-01T05:06:24.053Z,19.18
2018-04-01T05:07:24.061Z,19.18
2018-04-01T05:08:24.253Z,19.18
2018-04-01T05:09:24.063Z,19.24
2018-04-01T05:10:24.044Z,19.23
2018-04-01T05:11:24.057Z,19.23
2018-04-01T05:12:24.049Z,19.27
2018-04-01T05:13:24.031Z,19.28
2018-04-01T05:14:24.060Z,19.27
2018-04-01T05:15:24.039Z,19.3
2018-04-01T05:16:24.053Z,19.31
2018-04-01T05:17:24.062Z,19.29
2018-04-01T05:18:24.045Z,19.31
2018-04-01T05:19:24.093Z,19.3
2018-04-01T05:20:24.101Z,19.31
2018-04-01T05:21:24.023Z,19.33
2018-04-01T05:22:24.119Z,19.36
2018-04-01T05:23:24.045Z,19.33
2018-04-01T05:24:24.032Z,19.36
2018-04-01T05:25:24.106Z,19.37
2018-04-01T05:26:24.055Z,19.37
2018-04-01T05:27:24.043Z,19.38
2018-04-01T05:28:24.016Z,19.39
2018-04-01T05:29:24.062Z,19.36
2018-04-01T05:30:24.052Z,19.42
2018-04-01T05:31:24.039Z,19.4
2018-04-01T05:32:24.026Z,19.4
2018-04-01T05:33:24.083Z,19.42
2018-04-01T05:34:24.059Z,19.43
2018-04-01T05:35:24.051Z,19.42
2018-04-01T05:36:24.046Z,19.45
2018-04-01T05:37:24.032Z,19.44
2018-04-01T05:38:24.030Z,19.45
2018-04-01T05:39:24.023Z,19.46
2018-04-01T05:40:24.138Z,19.47
2018-04-01T05:41:24.064Z,19.48
2018-04-01T05:42:24.020Z,19.48
2018-04-01T05:43:24.016Z,19.5
2018-04-01T05:44:24.067Z,19.5
2018-04-01T05:45:24.071Z,19.52
2018-04-01T05:46:24.018Z,19.52
2018-04-01T05:47:24.103Z,19.51
2018-04-01T05:48:24.030Z,19.52
2018-04-01T05:49:24.053Z,19.53
2018-04-01T05:50:24.069Z,19.52
2018-04-01T05:51:24.048Z,19.54
2018-04-01T05:52:24.047Z,19.54
2018-04-01T05:53:24.090Z,19.56
2018-04-01T05:54:24.027Z,19.57
2018-04-01T05:55:24.116Z,19.56
2018-04-01T05:56:24.201Z,19.58
2018-04-01T05:57:24.022Z,19.6
2018-04-01T05:58:24.046Z,19.58
2018-04-01T05:59:24.043Z,19.59
2018-04-01T06:00:24.014Z,19.61
2018-04-01T06:01:24.020Z,19.61
2018-04-01T06:02:24.021Z,19.6
2018-04-01T06:03:24.035Z,19.63
2018-04-01T06:04:24.014Z,19.63
2018-04-01T06:05:24.027Z,19.61
2018-04-01T06:06:24.036Z,19.66
2018-04-01T06:07:24.052Z,19.62
2018-04-01T06:08:24.030Z,19.63
2018-04-01T06:09:24.035Z,19.63
2018-04-01T06:10:24.008Z,19.65
2018-04-01T06:11:24.028Z,19.63
2018-04-01T06:12:24.007Z,19.67
2018-04-01T06:13:24.015Z,19.67
2018-04-01T06:14:24.056Z,19.67
2018-04-01T06:15:24.031Z,19.68
2018-04-01T06:16:24.016Z,19.66
2018-04-01T06:17:24.010Z,19.67
2018-04-01T06:18:24.027Z,19.7
2018-04-01T06:19:23.996Z,19.69
2018-04-01T06:20:24.052Z,19.69
2018-04-01T06:21:24.024Z,19.7
2018-04-01T06:22:24.043Z,19.71
2018-04-01T06:23:24.040Z,19.71
2018-04-01T06:24:24.014Z,19.7
2018-04-01T06:25:24.037Z,19.71
2018-04-01T06:26:24.013Z,19.71
2018-04-01T06:27:24.087Z,19.73
2018-04-01T06:28:24.032Z,19.75
2018-04-01T06:29:24.013Z,19.73
2018-04-01T06:30:24.068Z,19.75
2018-04-01T06:31:24.009Z,19.75
2018-04-01T06:32:24.027Z,19.76
2018-04-01T06:33:24.005Z,19.75
2018-04-01T06:34:24.036Z,19.77
2018-04-01T06:35:24.044Z,19.77
2018-04-01T06:36:23.995Z,19.8
2018-04-01T06:37:24.013Z,19.79
2018-04-01T06:38:24.055Z,19.79
2018-04-01T06:39:24.033Z,19.8
2018-04-01T06:40:24.188Z,19.82
2018-04-01T06:41:24.027Z,19.82
2018-04-01T06:42:24.043Z,19.82
2018-04-01T06:43:24.028Z,19.83
2018-04-01T06:44:24.031Z,19.83
2018-04-01T06:45:24.212Z,19.84
2018-04-01T06:46:24.033Z,19.83
2018-04-01T06:47:24.030Z,19.82
2018-04-01T06:48:24.008Z,19.85
2018-04-01T06:49:24.030Z,19.86
2018-04-01T06:50:23.993Z,19.84
2018-04-01T06:51:24.082Z,19.88
2018-04-01T06:52:24.012Z,19.86
2018-04-01T06:53:24.010Z,19.85
2018-04-01T06:54:24.014Z,19.87
2018-04-01T06:55:24.025Z,19.86
2018-04-01T06:56:24.094Z,19.85
2018-04-01T06:57:24.034Z,19.86
2018-04-01T06:58:24.243Z,19.86
2018-04-01T06:59:24.008Z,19.85
2018-04-01T07:00:24.036Z,19.86
2018-04-01T07:01:24.050Z,19.85
2018-04-01T07:02:24.091Z,19.86
2018-04-01T07:03:24.037Z,19.81
2018-04-01T07:04:23.982Z,19.69
2018-04-01T07:05:23.994Z,19.62
2018-04-01T07:06:24.076Z,19.62
2018-04-01T07:07:24.021Z,19.66
2018-04-01T07:08:23.988Z,19.67
2018-04-01T07:09:23.991Z,19.67
2018-04-01T07:10:24.020Z,19.68
2018-04-01T07:11:24.045Z,19.7
2018-04-01T07:12:24.016Z,19.7
2018-04-01T07:13:24.016Z,19.72
2018-04-01T07:14:24.017Z,19.72
2018-04-01T07:15:24.014Z,19.73
2018-04-01T07:16:24.012Z,19.75
2018-04-01T07:17:23.992Z,19.75
2018-04-01T07:18:24.015Z,19.77
2018-04-01T07:19:24.029Z,19.77
2018-04-01T07:20:24.005Z,19.8
2018-04-01T07:21:24.014Z,19.81
2018-04-01T07:22:23.990Z,19.82
2018-04-01T07:23:23.985Z,19.82
2018-04-01T07:24:24.052Z,19.84
2018-04-01T07:25:24.001Z,19.86
2018-04-01T07:26:24.008Z,19.86
2018-04-01T07:27:24.002Z,19.87
2018-04-01T07:28:24.030Z,19.86
2018-04-01T07:29:24.063Z,19.89
2018-04-01T07:30:24.021Z,19.89
2018-04-01T07:31:24.013Z,19.89
2018-04-01T07:32:24.014Z,19.91
2018-04-01T07:33:24.019Z,19.91
2018-04-01T07:34:24.002Z,19.92
2018-04-01T07:35:24.006Z,19.91
2018-04-01T07:36:24.020Z,19.92
2018-04-01T07:37:24.014Z,19.94
2018-04-01T07:38:23.984Z,19.95
2018-04-01T07:39:24.007Z,19.96
2018-04-01T07:40:23.997Z,19.96
2018-04-01T07:41:24.013Z,19.97
2018-04-01T07:42:24.232Z,19.97
2018-04-01T07:43:24.057Z,19.98
2018-04-01T07:44:24.014Z,19.96
2018-04-01T07:45:24.027Z,19.97
2018-04-01T07:46:24.040Z,19.98
2018-04-01T07:47:23.994Z,19.97
2018-04-01T07:48:24.032Z,20.01
2018-04-01T07:49:24.000Z,19.99
2018-04-01T07:50:23.989Z,19.98
2018-04-01T07:51:23.986Z,19.98
2018-04-01T07:52:24.013Z,20.01
2018-04-01T07:53:24.023Z,19.99
2018-04-01T07:54:24.009Z,20.01
2018-04-01T07:55:23.996Z,20.02
2018-04-01T07:56:24.073Z,20.01
2018-04-01T07:57:24.077Z,20.01
2018-04-01T07:58:24.137Z,20.03
2018-04-01T07:59:24.014Z,20.03
2018-04-01T08:00:24.067Z,20.03
2018-04-01T08:01:23.998Z,20.01
2018-04-01T08:02:24.006Z,20.03
2018-04-01T08:03:24.032Z,20.03
2018-04-01T08:04:24.001Z,20.04
2018-04-01T08:05:23.985Z,20.03
2018-04-01T08:06:24.007Z,20.05
2018-04-01T08:07:24.024Z,20.06
2018-04-01T08:08:23.972Z,20.09
2018-04-01T08:09:24.022Z,20.1
2018-04-01T08:10:23.969Z,20.09
2018-04-01T08:11:23.998Z,20.07
2018-04-01T08:12:24.019Z,20.06
2018-04-01T08:13:23.991Z,20.1
2018-04-01T08:14:24.010Z,20.1
2018-04-01T08:15:24.001Z,20.1
2018-04-01T08:16:23.986Z,20.07
2018-04-01T08:17:23.977Z,20.09
2018-04-01T08:18:23.983Z,20.11
2018-04-01T08:19:24.007Z,20.11
2018-04-01T08:20:23.966Z,20.12
2018-04-01T08:21:23.993Z,20.1
2018-04-01T08:22:24.004Z,20.1
2018-04-01T08:23:24.173Z,20.11
2018-04-01T08:24:23.959Z,20.11
2018-04-01T08:25:23.993Z,20.09
2018-04-01T08:26:23.970Z,20.07
2018-04-01T08:27:23.966Z,20.11
2018-04-01T08:28:23.990Z,20.12
2018-04-01T08:29:23.986Z,20.1
2018-04-01T08:30:23.985Z,20.12
2018-04-01T08:31:24.093Z,20.14
2018-04-01T08:32:23.980Z,20.12
2018-04-01T08:33:24.018Z,20.12
2018-04-01T08:34:23.986Z,20.12
2018-04-01T08:35:23.999Z,20.12
2018-04-01T08:36:24.026Z,20.15
2018-04-01T08:37:23.995Z,20.12
2018-04-01T08:38:23.975Z,20.15
2018-04-01T08:39:23.983Z,20.15
2018-04-01T08:40:23.974Z,20.14
2018-04-01T08:41:23.997Z,20.16
2018-04-01T08:42:23.987Z,20.16
2018-04-01T08:43:23.987Z,20.15
2018-04-01T08:44:23.964Z,20.15
2018-04-01T08:45:24.010Z,20.15
2018-04-01T08:46:24.011Z,20.17
2018-04-01T08:47:23.996Z,20.16
2018-04-01T08:48:24.013Z,20.17
2018-04-01T08:49:23.989Z,20.17
2018-04-01T08:50:23.982Z,20.17
2018-04-01T08:51:24.007Z,20.17
2018-04-01T08:52:24.005Z,20.2
2018-04-01T08:53:23.978Z,20.16
2018-04-01T08:54:23.994Z,20.17
2018-04-01T08:55:24.011Z,20.16
2018-04-01T08:56:23.958Z,20.16
2018-04-01T08:57:23.955Z,20.18
2018-04-01T08:58:24.012Z,20.18
2018-04-01T08:59:24.245Z,20.18
2018-04-01T09:00:23.994Z,20.19
2018-04-01T09:01:24.016Z,20.17
2018-04-01T09:02:24.029Z,20.16
2018-04-01T09:03:23.987Z,20.19
2018-04-01T09:04:23.951Z,20.16
2018-04-01T09:05:24.011Z,20.15
2018-04-01T09:06:23.997Z,20.16
2018-04-01T09:07:24.082Z,20.17
2018-04-01T09:08:24.078Z,20.17
2018-04-01T09:09:26.553Z,20.19
2018-04-01T09:10:24.286Z,20.19
2018-04-01T09:11:24.056Z,20.2
2018-04-01T09:12:23.995Z,20.21
2018-04-01T09:13:23.967Z,20.25
2018-04-01T09:14:23.969Z,20.2
2018-04-01T09:15:23.952Z,20.21
2018-04-01T09:16:24.008Z,20.21
2018-04-01T09:17:23.980Z,20.24
2018-04-01T09:18:23.979Z,20.25
2018-04-01T09:19:23.961Z,20.24
2018-04-01T09:20:23.955Z,20.24
2018-04-01T09:21:24.005Z,20.25
2018-04-01T09:22:23.989Z,20.25
2018-04-01T09:23:23.968Z,20.24
2018-04-01T09:24:23.970Z,20.26
2018-04-01T09:25:23.952Z,20.26
2018-04-01T09:26:23.973Z,20.25
2018-04-01T09:27:23.961Z,20.3
2018-04-01T09:28:23.958Z,20.28
2018-04-01T09:29:23.974Z,20.28
2018-04-01T09:30:23.946Z,20.28
2018-04-01T09:31:23.943Z,20.29
2018-04-01T09:32:24.008Z,20.3
2018-04-01T09:33:24.016Z,20.31
2018-04-01T09:34:23.939Z,20.29
2018-04-01T09:35:23.953Z,20.28
2018-04-01T09:36:23.977Z,20.31
2018-04-01T09:37:23.993Z,20.3
2018-04-01T09:38:23.983Z,20.31
2018-04-01T09:39:23.960Z,20.34
2018-04-01T09:40:23.950Z,20.33
2018-04-01T09:41:23.959Z,20.35
2018-04-01T09:42:23.982Z,20.36
2018-04-01T09:43:23.945Z,20.39
2018-04-01T09:44:24.036Z,20.34
2018-04-01T09:45:23.952Z,20.34
2018-04-01T09:46:23.981Z,20.35
2018-04-01T09:47:24.113Z,20.36
2018-04-01T09:48:23.949Z,20.37
2018-04-01T09:49:24.023Z,20.37
2018-04-01T09:50:23.997Z,20.34
2018-04-01T09:51:23.965Z,20.39
2018-04-01T09:52:23.992Z,20.35
2018-04-01T09:53:23.947Z,20.36
2018-04-01T09:54:25.654Z,20.39
2018-04-01T09:55:23.960Z,20.37
2018-04-01T09:56:24.044Z,20.36
2018-04-01T09:57:24.101Z,20.37
2018-04-01T09:58:24.060Z,20.4
2018-04-01T09:59:23.968Z,20.37
2018-04-01T10:00:23.958Z,20.39
2018-04-01T10:01:23.956Z,20.39
2018-04-01T10:02:23.957Z,20.39
2018-04-01T10:03:24.161Z,20.39
2018-04-01T10:04:23.979Z,20.39
2018-04-01T10:05:23.934Z,20.35
2018-04-01T10:06:23.972Z,20.35
2018-04-01T10:07:23.965Z,20.36
2018-04-01T10:08:23.953Z,20.35
2018-04-01T10:09:23.957Z,20.33
2018-04-01T10:10:23.950Z,20.34
2018-04-01T10:11:25.188Z,20.34
2018-04-01T10:12:23.965Z,20.34
2018-04-01T10:13:29.010Z,20.31
2018-04-01T10:14:23.954Z,20.31
2018-04-01T10:15:23.963Z,20.31
2018-04-01T10:16:23.937Z,20.33
2018-04-01T10:17:23.939Z,20.32
2018-04-01T10:18:23.966Z,20.31
2018-04-01T10:19:24.654Z,20.29
2018-04-01T10:20:23.938Z,20.29
2018-04-01T10:21:23.973Z,20.3
2018-04-01T10:22:23.959Z,20.31
2018-04-01T10:23:24.004Z,20.29
2018-04-01T10:24:23.935Z,20.3
2018-04-01T10:25:23.973Z,20.31
2018-04-01T10:26:23.983Z,20.3
2018-04-01T10:27:24.005Z,20.28
2018-04-01T10:28:23.973Z,20.31
2018-04-01T10:29:23.951Z,20.28
2018-04-01T10:30:23.965Z,20.3
2018-04-01T10:31:23.964Z,20.28
2018-04-01T10:32:23.958Z,20.3
2018-04-01T10:33:23.955Z,20.34
2018-04-01T10:34:23.942Z,20.3
2018-04-01T10:35:24.013Z,20.34
2018-04-01T10:36:23.950Z,20.35
2018-04-01T10:37:23.950Z,20.35
2018-04-01T10:38:23.960Z,20.37
2018-04-01T10:39:23.958Z,20.39
2018-04-01T10:40:23.956Z,20.4
2018-04-01T10:41:23.960Z,20.41
2018-04-01T10:42:23.958Z,20.42
2018-04-01T10:43:24.278Z,20.43
2018-04-01T10:44:23.930Z,20.42
2018-04-01T10:45:23.960Z,20.46
2018-04-01T10:46:23.924Z,20.45
2018-04-01T10:47:23.955Z,20.45
2018-04-01T10:48:24.027Z,20.48
2018-04-01T10:49:24.075Z,20.47
2018-04-01T10:50:23.918Z,20.48
2018-04-01T10:51:23.951Z,20.51
2018-04-01T10:52:23.945Z,20.53
2018-04-01T10:53:23.936Z,20.53
2018-04-01T10:54:23.948Z,20.56
2018-04-01T10:55:23.957Z,20.56
2018-04-01T10:56:23.948Z,20.57
2018-04-01T10:57:23.957Z,20.59
2018-04-01T10:58:23.961Z,20.57
2018-04-01T10:59:23.980Z,20.61
2018-04-01T11:00:23.942Z,20.6
2018-04-01T11:01:23.939Z,20.6
2018-04-01T11:02:23.925Z,20.59
2018-04-01T11:03:23.990Z,20.62
2018-04-01T11:04:23.957Z,20.63
2018-04-01T11:05:23.766Z,20.61
2018-04-01T11:06:23.997Z,20.63
2018-04-01T11:07:23.986Z,20.63
2018-04-01T11:08:23.951Z,20.62
2018-04-01T11:09:23.933Z,20.64
2018-04-01T11:10:23.948Z,20.65
2018-04-01T11:11:24.197Z,20.63
2018-04-01T11:12:23.927Z,20.63
2018-04-01T11:13:23.972Z,20.66
2018-04-01T11:14:23.937Z,20.64
2018-04-01T11:15:23.956Z,20.66
2018-04-01T11:16:23.934Z,20.65
2018-04-01T11:17:23.954Z,20.64
2018-04-01T11:18:23.980Z,20.66
2018-04-01T11:19:23.945Z,20.66
2018-04-01T11:20:23.948Z,20.64
2018-04-01T11:21:23.925Z,20.68
2018-04-01T11:22:23.935Z,20.66
2018-04-01T11:23:23.923Z,20.66
2018-04-01T11:24:23.950Z,20.66
2018-04-01T11:25:24.045Z,20.66
2018-04-01T11:26:24.043Z,20.65
2018-04-01T11:27:23.941Z,20.65
2018-04-01T11:28:23.972Z,20.68
2018-04-01T11:29:23.936Z,20.65
2018-04-01T11:30:23.940Z,20.68
2018-04-01T11:31:23.935Z,20.66
2018-04-01T11:32:23.941Z,20.66
2018-04-01T11:33:23.919Z,20.66
2018-04-01T11:34:23.958Z,20.66
2018-04-01T11:35:23.921Z,20.66
2018-04-01T11:36:24.006Z,20.66
2018-04-01T11:37:24.028Z,20.65
2018-04-01T11:38:23.929Z,20.63
2018-04-01T11:39:23.942Z,20.65
2018-04-01T11:40:23.967Z,20.62
2018-04-01T11:41:23.931Z,20.63
2018-04-01T11:42:23.914Z,20.61
2018-04-01T11:43:23.934Z,20.61
2018-04-01T11:44:23.984Z,20.61
2018-04-01T11:45:23.922Z,20.61
2018-04-01T11:46:23.937Z,20.61
2018-04-01T11:47:23.928Z,20.59
2018-04-01T11:48:23.931Z,20.58
2018-04-01T11:49:23.949Z,20.6
2018-04-01T11:50:23.922Z,20.6
2018-04-01T11:51:23.924Z,20.56
2018-04-01T11:52:23.930Z,20.59
2018-04-01T11:53:23.926Z,20.59
2018-04-01T11:54:23.894Z,20.57
2018-04-01T11:55:23.977Z,20.56
2018-04-01T11:56:23.907Z,20.57
2018-04-01T11:57:23.925Z,20.55
2018-04-01T11:58:24.029Z,20.53
2018-04-01T11:59:24.031Z,20.54
2018-04-01T12:00:23.938Z,20.54
2018-04-01T12:01:23.939Z,20.57
2018-04-01T12:02:23.922Z,20.51
2018-04-01T12:03:23.915Z,20.54
2018-04-01T12:04:23.901Z,20.51
2018-04-01T12:05:23.919Z,20.5
2018-04-01T12:06:23.952Z,20.48
2018-04-01T12:07:23.927Z,20.5
2018-04-01T12:08:23.957Z,20.47
2018-04-01T12:09:23.901Z,20.49
2018-04-01T12:10:23.893Z,20.48
2018-04-01T12:11:24.004Z,20.46
2018-04-01T12:12:23.911Z,20.47
2018-04-01T12:13:23.932Z,20.48
2018-04-01T12:14:24.161Z,20.45
2018-04-01T12:15:23.925Z,20.45
2018-04-01T12:16:24.166Z,20.45
2018-04-01T12:17:23.949Z,20.44
2018-04-01T12:18:23.916Z,20.45
2018-04-01T12:19:23.909Z,20.45
2018-04-01T12:20:23.937Z,20.45
2018-04-01T12:21:23.930Z,20.44
2018-04-01T12:22:23.940Z,20.44
2018-04-01T12:23:23.903Z,20.43
2018-04-01T12:24:23.918Z,20.45
2018-04-01T12:25:23.898Z,20.45
2018-04-01T12:26:23.905Z,20.44
2018-04-01T12:27:23.934Z,20.45
2018-04-01T12:28:23.925Z,20.45
2018-04-01T12:29:23.917Z,20.43
2018-04-01T12:30:23.909Z,20.44
2018-04-01T12:31:23.929Z,20.45
2018-04-01T12:32:23.900Z,20.42
2018-04-01T12:33:23.923Z,20.44
2018-04-01T12:34:23.917Z,20.44
2018-04-01T12:35:23.904Z,20.44
2018-04-01T12:36:23.929Z,20.45
2018-04-01T12:37:23.931Z,20.46
2018-04-01T12:38:23.913Z,20.45
2018-04-01T12:39:23.972Z,20.48
2018-04-01T12:40:23.926Z,20.46
2018-04-01T12:41:23.894Z,20.46
2018-04-01T12:42:23.951Z,20.48
2018-04-01T12:43:23.900Z,20.48
2018-04-01T12:44:23.895Z,20.46
2018-04-01T12:45:23.888Z,20.48
2018-04-01T12:46:23.893Z,20.49
2018-04-01T12:47:23.889Z,20.48
2018-04-01T12:48:23.930Z,20.48
2018-04-01T12:49:26.076Z,20.48
2018-04-01T12:50:23.892Z,20.45
2018-04-01T12:51:23.924Z,20.48
2018-04-01T12:52:23.938Z,20.49
2018-04-01T12:53:23.876Z,20.48
2018-04-01T12:54:23.917Z,20.51